AVA8457 SKBO-SKPS
Flight info
| Callsign | AVA8457 |
|---|---|
| Flight time | 0h 47m |
| Altitude | 36000 |
| Route | VAPOM4R VAPOM DCT OREGA DCT PPN DCT MER |
| Aircraft | A320/M-SDE3FGHIRWY/LB1 |
Departure
| Time | 2026-04-30 20:30 |
|---|---|
| Airport | El Dorado International Airport (SKBO) |
Arrival
| Time | 2026-04-30 21:18 |
|---|---|
| Airport | Antonio Nariño Airport (SKPS) |
| Time | Latitude | Longitude | Altitude | Speed | Heading |
|---|---|---|---|---|---|
| 2026-04-30 20:28 | 4.71142 | -74.16893 | 8364 ft | 10 kts | 165° |
| 2026-04-30 20:28 | 4.71006 | -74.16859 | 8363 ft | 10 kts | 124° |
| 2026-04-30 20:29 | 4.70952 | -74.16788 | 8363 ft | 41 kts | 128° |
| 2026-04-30 20:30 | 4.69345 | -74.14669 | 8634 ft | 179 kts | 129° |
| 2026-04-30 20:30 | 4.66100 | -74.13679 | 9996 ft | 220 kts | 220° |
| 2026-04-30 20:31 | 4.63261 | -74.17845 | 10939 ft | 254 kts | 236° |
| 2026-04-30 20:32 | 4.61134 | -74.22794 | 12120 ft | 275 kts | 258° |
| 2026-04-30 20:32 | 4.60374 | -74.26818 | 12647 ft | 312 kts | 254° |
| 2026-04-30 20:33 | 4.59457 | -74.28844 | 12811 ft | 331 kts | 235° |
| 2026-04-30 20:33 | 4.57113 | -74.33099 | 13477 ft | 362 kts | 241° |
| 2026-04-30 20:33 | 4.55992 | -74.35417 | 14051 ft | 366 kts | 242° |
| 2026-04-30 20:34 | 4.53752 | -74.40066 | 15020 ft | 374 kts | 242° |
| 2026-04-30 20:34 | 4.51411 | -74.44727 | 16088 ft | 380 kts | 241° |
| 2026-04-30 20:35 | 4.50195 | -74.47097 | 16655 ft | 384 kts | 241° |
| 2026-04-30 20:35 | 4.48964 | -74.49483 | 17227 ft | 387 kts | 240° |
| 2026-04-30 20:35 | 4.46467 | -74.54316 | 18233 ft | 394 kts | 241° |
| 2026-04-30 20:36 | 4.45205 | -74.56772 | 18699 ft | 397 kts | 241° |
| 2026-04-30 20:36 | 4.43936 | -74.59253 | 19164 ft | 400 kts | 241° |
| 2026-04-30 20:36 | 4.41378 | -74.64258 | 20053 ft | 407 kts | 241° |
| 2026-04-30 20:37 | 4.40085 | -74.66789 | 20527 ft | 409 kts | 241° |
| 2026-04-30 20:37 | 4.38783 | -74.69332 | 20974 ft | 412 kts | 241° |
| 2026-04-30 20:37 | 4.37470 | -74.71889 | 21412 ft | 414 kts | 241° |
| 2026-04-30 20:37 | 4.36161 | -74.74437 | 21850 ft | 417 kts | 241° |
| 2026-04-30 20:38 | 4.34824 | -74.77032 | 22305 ft | 420 kts | 241° |
| 2026-04-30 20:38 | 4.33482 | -74.79631 | 22748 ft | 423 kts | 241° |
| 2026-04-30 20:38 | 4.32123 | -74.82259 | 23176 ft | 425 kts | 241° |
| 2026-04-30 20:39 | 4.29389 | -74.87549 | 23918 ft | 430 kts | 241° |
| 2026-04-30 20:39 | 4.28011 | -74.90222 | 24305 ft | 431 kts | 241° |
| 2026-04-30 20:39 | 4.26634 | -74.92897 | 24704 ft | 432 kts | 242° |
| 2026-04-30 20:40 | 4.23870 | -74.98266 | 25506 ft | 434 kts | 242° |
| 2026-04-30 20:40 | 4.22486 | -75.00960 | 25977 ft | 435 kts | 242° |
| 2026-04-30 20:40 | 4.21092 | -75.03658 | 26323 ft | 436 kts | 240° |
| 2026-04-30 20:41 | 4.17614 | -75.08610 | 27066 ft | 437 kts | 232° |
| 2026-04-30 20:41 | 4.15786 | -75.11049 | 27433 ft | 438 kts | 232° |
| 2026-04-30 20:41 | 4.13956 | -75.13490 | 27780 ft | 439 kts | 232° |
| 2026-04-30 20:41 | 4.12118 | -75.15942 | 28116 ft | 440 kts | 233° |
| 2026-04-30 20:42 | 4.10278 | -75.18397 | 28463 ft | 441 kts | 233° |
| 2026-04-30 20:42 | 4.08427 | -75.20863 | 28813 ft | 443 kts | 233° |
| 2026-04-30 20:42 | 4.04721 | -75.25808 | 29519 ft | 445 kts | 233° |
| 2026-04-30 20:43 | 4.02862 | -75.28294 | 29825 ft | 447 kts | 233° |
| 2026-04-30 20:43 | 4.00995 | -75.30787 | 30098 ft | 448 kts | 233° |
| 2026-04-30 20:43 | 3.99117 | -75.33292 | 30341 ft | 449 kts | 233° |
| 2026-04-30 20:44 | 3.95359 | -75.38316 | 30843 ft | 451 kts | 233° |
| 2026-04-30 20:44 | 3.93474 | -75.40832 | 31093 ft | 453 kts | 233° |
| 2026-04-30 20:44 | 3.89686 | -75.45886 | 31726 ft | 452 kts | 233° |
| 2026-04-30 20:45 | 3.85608 | -75.50614 | 32574 ft | 448 kts | 221° |
| 2026-04-30 20:45 | 3.83177 | -75.52570 | 32820 ft | 448 kts | 219° |
| 2026-04-30 20:45 | 3.80736 | -75.54487 | 32891 ft | 440 kts | 219° |
| 2026-04-30 20:46 | 3.73694 | -75.60035 | 32899 ft | 425 kts | 219° |
| 2026-04-30 20:46 | 3.71377 | -75.61866 | 32904 ft | 425 kts | 219° |
| 2026-04-30 20:47 | 3.64405 | -75.67360 | 32937 ft | 426 kts | 219° |
| 2026-04-30 20:48 | 3.57418 | -75.72873 | 32934 ft | 426 kts | 219° |
| 2026-04-30 20:48 | 3.52789 | -75.76526 | 32927 ft | 426 kts | 219° |
| 2026-04-30 20:49 | 3.48099 | -75.80219 | 32969 ft | 426 kts | 219° |
| 2026-04-30 20:50 | 3.41139 | -75.85694 | 32965 ft | 425 kts | 219° |
| 2026-04-30 20:50 | 3.36484 | -75.89364 | 32951 ft | 425 kts | 219° |
| 2026-04-30 20:51 | 3.31829 | -75.93031 | 32955 ft | 426 kts | 219° |
| 2026-04-30 20:51 | 3.24838 | -75.98536 | 32952 ft | 426 kts | 219° |
| 2026-04-30 20:52 | 3.20181 | -76.02202 | 32953 ft | 426 kts | 219° |
| 2026-04-30 20:53 | 3.13190 | -76.07703 | 32929 ft | 426 kts | 219° |
| 2026-04-30 20:53 | 3.08525 | -76.11363 | 32938 ft | 426 kts | 219° |
| 2026-04-30 20:54 | 3.01531 | -76.16862 | 32945 ft | 425 kts | 220° |
| 2026-04-30 20:55 | 2.95342 | -76.21737 | 32920 ft | 425 kts | 220° |
| 2026-04-30 20:55 | 2.90695 | -76.25401 | 32905 ft | 425 kts | 220° |
| 2026-04-30 20:56 | 2.83712 | -76.30895 | 32892 ft | 426 kts | 220° |
| 2026-04-30 20:57 | 2.76709 | -76.36396 | 32888 ft | 427 kts | 220° |
| 2026-04-30 20:57 | 2.72040 | -76.40061 | 32897 ft | 427 kts | 220° |
| 2026-04-30 20:58 | 2.65030 | -76.45577 | 32957 ft | 427 kts | 220° |
| 2026-04-30 20:58 | 2.62682 | -76.47425 | 32540 ft | 430 kts | 219° |
| 2026-04-30 20:58 | 2.60370 | -76.49246 | 31995 ft | 427 kts | 220° |
| 2026-04-30 20:59 | 2.55727 | -76.52896 | 30940 ft | 422 kts | 219° |
| 2026-04-30 20:59 | 2.53389 | -76.54729 | 30422 ft | 421 kts | 219° |
| 2026-04-30 21:00 | 2.48809 | -76.58323 | 29329 ft | 415 kts | 219° |
| 2026-04-30 21:00 | 2.44347 | -76.61827 | 28340 ft | 406 kts | 218° |
| 2026-04-30 21:01 | 2.39999 | -76.65340 | 27392 ft | 398 kts | 219° |
| 2026-04-30 21:01 | 2.37843 | -76.67114 | 26923 ft | 395 kts | 219° |
| 2026-04-30 21:01 | 2.33659 | -76.70548 | 25986 ft | 389 kts | 219° |
| 2026-04-30 21:02 | 2.31571 | -76.72254 | 25517 ft | 386 kts | 219° |
| 2026-04-30 21:02 | 2.29489 | -76.73955 | 25034 ft | 385 kts | 218° |
| 2026-04-30 21:02 | 2.27408 | -76.75650 | 24547 ft | 384 kts | 218° |
| 2026-04-30 21:02 | 2.25333 | -76.77337 | 24047 ft | 384 kts | 217° |
| 2026-04-30 21:03 | 2.23262 | -76.79023 | 23553 ft | 384 kts | 217° |
| 2026-04-30 21:03 | 2.21187 | -76.80714 | 22947 ft | 385 kts | 216° |
| 2026-04-30 21:03 | 2.19117 | -76.82401 | 22437 ft | 383 kts | 217° |
| 2026-04-30 21:03 | 2.17055 | -76.84080 | 21923 ft | 382 kts | 217° |
| 2026-04-30 21:04 | 2.14991 | -76.85758 | 21428 ft | 381 kts | 217° |
| 2026-04-30 21:04 | 2.12935 | -76.87430 | 20933 ft | 381 kts | 217° |
| 2026-04-30 21:04 | 2.08826 | -76.90778 | 19942 ft | 381 kts | 218° |
| 2026-04-30 21:05 | 2.06773 | -76.92451 | 19466 ft | 380 kts | 217° |
| 2026-04-30 21:05 | 2.04728 | -76.94117 | 18951 ft | 379 kts | 217° |
| 2026-04-30 21:05 | 2.02681 | -76.95782 | 18472 ft | 379 kts | 217° |
| 2026-04-30 21:05 | 2.00634 | -76.97445 | 17962 ft | 379 kts | 217° |
| 2026-04-30 21:06 | 1.98592 | -76.99103 | 17470 ft | 377 kts | 217° |
| 2026-04-30 21:06 | 1.96563 | -77.00753 | 16992 ft | 375 kts | 217° |
| 2026-04-30 21:06 | 1.94545 | -77.02394 | 16522 ft | 373 kts | 217° |
| 2026-04-30 21:06 | 1.92536 | -77.04027 | 16073 ft | 371 kts | 217° |
| 2026-04-30 21:07 | 1.90537 | -77.05652 | 15614 ft | 369 kts | 217° |
| 2026-04-30 21:07 | 1.88558 | -77.07264 | 15231 ft | 365 kts | 217° |
| 2026-04-30 21:07 | 1.86615 | -77.08849 | 14772 ft | 363 kts | 217° |
| 2026-04-30 21:07 | 1.84657 | -77.10444 | 14308 ft | 363 kts | 217° |
| 2026-04-30 21:08 | 1.82727 | -77.12018 | 14195 ft | 352 kts | 217° |
| 2026-04-30 21:08 | 1.80862 | -77.13539 | 14084 ft | 341 kts | 217° |
| 2026-04-30 21:08 | 1.79033 | -77.14997 | 13966 ft | 330 kts | 212° |
| 2026-04-30 21:08 | 1.77075 | -77.16114 | 13873 ft | 319 kts | 205° |
| 2026-04-30 21:09 | 1.75138 | -77.17146 | 13754 ft | 311 kts | 205° |
| 2026-04-30 21:09 | 1.73247 | -77.18156 | 13597 ft | 304 kts | 205° |
| 2026-04-30 21:09 | 1.71395 | -77.19146 | 13341 ft | 301 kts | 205° |
| 2026-04-30 21:09 | 1.69566 | -77.20125 | 12854 ft | 297 kts | 205° |
| 2026-04-30 21:10 | 1.67758 | -77.21093 | 12315 ft | 294 kts | 205° |
| 2026-04-30 21:10 | 1.65967 | -77.22053 | 11834 ft | 289 kts | 205° |
| 2026-04-30 21:10 | 1.64214 | -77.22993 | 11584 ft | 285 kts | 205° |
| 2026-04-30 21:10 | 1.62470 | -77.23927 | 11360 ft | 284 kts | 206° |
| 2026-04-30 21:11 | 1.60736 | -77.24856 | 11110 ft | 281 kts | 205° |
| 2026-04-30 21:11 | 1.59020 | -77.25775 | 10846 ft | 278 kts | 205° |
| 2026-04-30 21:11 | 1.57319 | -77.26688 | 10588 ft | 277 kts | 204° |
| 2026-04-30 21:11 | 1.55630 | -77.27593 | 10343 ft | 275 kts | 205° |
| 2026-04-30 21:12 | 1.53941 | -77.28497 | 10095 ft | 273 kts | 206° |
| 2026-04-30 21:12 | 1.52264 | -77.29391 | 9846 ft | 272 kts | 205° |
| 2026-04-30 21:12 | 1.50598 | -77.30242 | 9587 ft | 268 kts | 203° |
| 2026-04-30 21:12 | 1.48939 | -77.31070 | 9359 ft | 264 kts | 203° |
| 2026-04-30 21:13 | 1.47304 | -77.31880 | 9121 ft | 259 kts | 203° |
| 2026-04-30 21:13 | 1.45722 | -77.32663 | 8902 ft | 256 kts | 204° |
| 2026-04-30 21:13 | 1.44145 | -77.33444 | 8691 ft | 247 kts | 205° |
| 2026-04-30 21:13 | 1.42665 | -77.34183 | 8654 ft | 229 kts | 204° |
| 2026-04-30 21:14 | 1.41316 | -77.34857 | 8670 ft | 208 kts | 205° |
| 2026-04-30 21:14 | 1.40069 | -77.35482 | 8772 ft | 192 kts | 204° |
| 2026-04-30 21:14 | 1.38929 | -77.36056 | 8765 ft | 176 kts | 203° |
| 2026-04-30 21:14 | 1.37798 | -77.36488 | 8651 ft | 175 kts | 187° |
| 2026-04-30 21:15 | 1.36598 | -77.36488 | 8391 ft | 167 kts | 166° |
| 2026-04-30 21:15 | 1.35547 | -77.36106 | 8150 ft | 159 kts | 148° |
| 2026-04-30 21:15 | 1.34694 | -77.35415 | 7955 ft | 159 kts | 129° |
| 2026-04-30 21:15 | 1.34107 | -77.34472 | 7719 ft | 161 kts | 110° |
| 2026-04-30 21:16 | 1.33864 | -77.33409 | 7470 ft | 156 kts | 91° |
| 2026-04-30 21:16 | 1.33970 | -77.32344 | 7227 ft | 154 kts | 74° |
| 2026-04-30 21:16 | 1.34399 | -77.31377 | 6992 ft | 153 kts | 52° |
| 2026-04-30 21:16 | 1.35109 | -77.30598 | 6767 ft | 151 kts | 34° |
| 2026-04-30 21:17 | 1.36016 | -77.30081 | 6541 ft | 151 kts | 17° |
| 2026-04-30 21:17 | 1.37016 | -77.29799 | 6332 ft | 149 kts | 14° |
| 2026-04-30 21:17 | 1.38017 | -77.29531 | 6128 ft | 150 kts | 12° |
| 2026-04-30 21:17 | 1.39016 | -77.29266 | 5944 ft | 142 kts | 13° |
| 2026-04-30 21:18 | 1.39750 | -77.29072 | 5900 ft | 66 kts | 14° |
| 2026-04-30 21:18 | 1.39964 | -77.29015 | 5887 ft | 24 kts | 15° |
| 2026-04-30 21:18 | 1.40164 | -77.28961 | 5876 ft | 40 kts | 13° |
| 2026-04-30 21:18 | 1.40444 | -77.28888 | 5870 ft | 39 kts | 14° |
| 2026-04-30 21:19 | 1.40599 | -77.28861 | 5852 ft | 11 kts | 347° |
| 2026-04-30 21:19 | 1.40605 | -77.28845 | 5852 ft | 1 kts | 162° |
| 2026-04-30 21:19 | 1.40601 | -77.28847 | 5852 ft | 4 kts | 190° |
| 2026-04-30 21:19 | 1.40549 | -77.28859 | 5859 ft | 6 kts | 194° |
| 2026-04-30 21:20 | 1.40438 | -77.28889 | 5872 ft | 31 kts | 194° |
| 2026-04-30 21:20 | 1.40158 | -77.28959 | 5877 ft | 44 kts | 194° |
| 2026-04-30 21:20 | 1.39879 | -77.29036 | 5891 ft | 39 kts | 197° |
| 2026-04-30 21:20 | 1.39694 | -77.29083 | 5906 ft | 10 kts | 179° |
| 2026-04-30 21:21 | 1.39667 | -77.29038 | 5904 ft | 6 kts | 105° |
| 2026-04-30 21:21 | 1.39663 | -77.29028 | 5910 ft | 1 kts | 116° |
| 2026-04-30 21:21 | 1.39610 | -77.28973 | 5907 ft | 5 kts | 105° |